TOM2370 EGCC-LGKO
Flight info
| Callsign | TOM2370 |
|---|---|
| Flight time | N/A |
| Altitude | 39000 |
| Route | SONE1Y SONEX UL975 DESIG L603 DOLAS NAVPI DODEN NEGIX DINKU BESNI LATLO OBEDI BERTA TEBLI TIVNU MEDUX UM867 KOGAT ERANA UL737 TSL UN130 MES UN139 LURUS L995 KOPAR KOPA1M |
| Aircraft | B789/H-V/N |
Departure
| Time | N/A |
|---|---|
| Airport | Manchester Airport (EGCC) |
Arrival
| Time | 2026-05-05 11:41 |
|---|---|
| Airport | Kos International Airport "Ippokratis" (LGKO) |
| Time | Latitude | Longitude | Altitude | Speed | Heading |
|---|---|---|---|---|---|
| 2026-05-05 10:04 | 45.52549 | 16.15799 | 40962 ft | 501 kts | 132° |
| 2026-05-05 10:04 | 45.47951 | 16.23208 | 40965 ft | 501 kts | 132° |
| 2026-05-05 10:05 | 45.43325 | 16.30641 | 40973 ft | 502 kts | 132° |
| 2026-05-05 10:05 | 45.38685 | 16.38075 | 40961 ft | 502 kts | 132° |
| 2026-05-05 10:06 | 45.34037 | 16.45503 | 40972 ft | 502 kts | 132° |
| 2026-05-05 10:06 | 45.31714 | 16.49208 | 40977 ft | 503 kts | 132° |
| 2026-05-05 10:07 | 45.24708 | 16.60358 | 40967 ft | 504 kts | 132° |
| 2026-05-05 10:07 | 45.20070 | 16.67740 | 40982 ft | 504 kts | 132° |
| 2026-05-05 10:08 | 45.15454 | 16.75225 | 40982 ft | 504 kts | 131° |
| 2026-05-05 10:08 | 45.10845 | 16.82721 | 40982 ft | 504 kts | 131° |
| 2026-05-05 10:09 | 45.06230 | 16.90202 | 40994 ft | 505 kts | 132° |
| 2026-05-05 10:09 | 45.01617 | 16.97646 | 40983 ft | 505 kts | 132° |
| 2026-05-05 10:10 | 44.96940 | 17.05053 | 40994 ft | 505 kts | 134° |
| 2026-05-05 10:10 | 44.92866 | 17.10989 | 40997 ft | 505 kts | 135° |
| 2026-05-05 10:11 | 44.87907 | 17.17990 | 40986 ft | 505 kts | 136° |
| 2026-05-05 10:11 | 44.82912 | 17.24986 | 40998 ft | 505 kts | 136° |
| 2026-05-05 10:12 | 44.77916 | 17.31972 | 40993 ft | 505 kts | 136° |
| 2026-05-05 10:12 | 44.72952 | 17.38902 | 40985 ft | 505 kts | 136° |
| 2026-05-05 10:13 | 44.67958 | 17.45859 | 40995 ft | 505 kts | 136° |
| 2026-05-05 10:13 | 44.62952 | 17.52836 | 40984 ft | 505 kts | 136° |
| 2026-05-05 10:14 | 44.57954 | 17.59779 | 40975 ft | 505 kts | 136° |
| 2026-05-05 10:14 | 44.52932 | 17.66722 | 40982 ft | 507 kts | 136° |
| 2026-05-05 10:15 | 44.50459 | 17.70130 | 40975 ft | 507 kts | 136° |
| 2026-05-05 10:15 | 44.42227 | 17.81453 | 40952 ft | 507 kts | 136° |
| 2026-05-05 10:16 | 44.37188 | 17.88362 | 40946 ft | 507 kts | 136° |
| 2026-05-05 10:16 | 44.32167 | 17.95229 | 40940 ft | 508 kts | 136° |
| 2026-05-05 10:17 | 44.27080 | 18.02169 | 40935 ft | 508 kts | 136° |
| 2026-05-05 10:17 | 44.22054 | 18.09013 | 40942 ft | 508 kts | 136° |
| 2026-05-05 10:18 | 44.16981 | 18.15902 | 40932 ft | 508 kts | 136° |
| 2026-05-05 10:18 | 44.11922 | 18.22752 | 40931 ft | 508 kts | 136° |
| 2026-05-05 10:19 | 44.06851 | 18.29600 | 40941 ft | 508 kts | 136° |
| 2026-05-05 10:19 | 44.02631 | 18.35286 | 40931 ft | 508 kts | 136° |
| 2026-05-05 10:20 | 43.97551 | 18.42114 | 40938 ft | 509 kts | 137° |
| 2026-05-05 10:20 | 43.92460 | 18.48935 | 40940 ft | 509 kts | 137° |
| 2026-05-05 10:21 | 43.87353 | 18.55764 | 40929 ft | 510 kts | 137° |
| 2026-05-05 10:21 | 43.82238 | 18.62590 | 40941 ft | 510 kts | 137° |
| 2026-05-05 10:22 | 43.77152 | 18.69361 | 40935 ft | 511 kts | 137° |
| 2026-05-05 10:22 | 43.72014 | 18.76181 | 40922 ft | 511 kts | 137° |
| 2026-05-05 10:23 | 43.66882 | 18.82974 | 40932 ft | 511 kts | 137° |
| 2026-05-05 10:23 | 43.61742 | 18.89763 | 40924 ft | 511 kts | 137° |
| 2026-05-05 10:24 | 43.56601 | 18.96538 | 40918 ft | 512 kts | 137° |
| 2026-05-05 10:24 | 43.51449 | 19.03311 | 40930 ft | 512 kts | 137° |
| 2026-05-05 10:25 | 43.46291 | 19.10074 | 40942 ft | 512 kts | 137° |
| 2026-05-05 10:25 | 43.41168 | 19.16774 | 40931 ft | 513 kts | 137° |
| 2026-05-05 10:26 | 43.35974 | 19.23550 | 40932 ft | 513 kts | 137° |
| 2026-05-05 10:26 | 43.30788 | 19.30300 | 40937 ft | 513 kts | 137° |
| 2026-05-05 10:27 | 43.25611 | 19.37020 | 40922 ft | 513 kts | 137° |
| 2026-05-05 10:27 | 43.20425 | 19.43735 | 40929 ft | 513 kts | 138° |
| 2026-05-05 10:28 | 43.15221 | 19.50459 | 40933 ft | 514 kts | 138° |
| 2026-05-05 10:28 | 43.10056 | 19.57120 | 40919 ft | 513 kts | 138° |
| 2026-05-05 10:29 | 43.04836 | 19.63835 | 40930 ft | 514 kts | 138° |
| 2026-05-05 10:29 | 42.99626 | 19.70518 | 40926 ft | 514 kts | 138° |
| 2026-05-05 10:30 | 42.94395 | 19.77203 | 40918 ft | 515 kts | 138° |
| 2026-05-05 10:30 | 42.89191 | 19.83839 | 40929 ft | 515 kts | 138° |
| 2026-05-05 10:31 | 42.83957 | 19.90501 | 40920 ft | 515 kts | 138° |
| 2026-05-05 10:31 | 42.78706 | 19.97168 | 40914 ft | 515 kts | 138° |
| 2026-05-05 10:32 | 42.73619 | 20.04060 | 40928 ft | 517 kts | 133° |
| 2026-05-05 10:32 | 42.68992 | 20.11583 | 40914 ft | 517 kts | 130° |
| 2026-05-05 10:33 | 42.64485 | 20.19127 | 40906 ft | 518 kts | 130° |
| 2026-05-05 10:33 | 42.59897 | 20.26692 | 40905 ft | 518 kts | 130° |
| 2026-05-05 10:34 | 42.55294 | 20.34236 | 40887 ft | 518 kts | 131° |
| 2026-05-05 10:34 | 42.50692 | 20.41768 | 40882 ft | 518 kts | 130° |
| 2026-05-05 10:35 | 42.49176 | 20.44248 | 40884 ft | 518 kts | 131° |
| 2026-05-05 10:35 | 42.41090 | 20.57432 | 40874 ft | 518 kts | 131° |
| 2026-05-05 10:36 | 42.36477 | 20.64921 | 40877 ft | 518 kts | 131° |
| 2026-05-05 10:36 | 42.31856 | 20.72406 | 40882 ft | 518 kts | 131° |
| 2026-05-05 10:37 | 42.27260 | 20.79831 | 40868 ft | 517 kts | 131° |
| 2026-05-05 10:37 | 42.22644 | 20.87261 | 40866 ft | 517 kts | 131° |
| 2026-05-05 10:38 | 42.18013 | 20.94702 | 40862 ft | 518 kts | 131° |
| 2026-05-05 10:38 | 42.13355 | 21.02119 | 40850 ft | 517 kts | 133° |
| 2026-05-05 10:39 | 42.08355 | 21.09086 | 40854 ft | 517 kts | 137° |
| 2026-05-05 10:39 | 42.03167 | 21.15806 | 40839 ft | 516 kts | 138° |
| 2026-05-05 10:40 | 41.97937 | 21.22438 | 40839 ft | 519 kts | 138° |
| 2026-05-05 10:40 | 41.92676 | 21.29107 | 40838 ft | 519 kts | 138° |
| 2026-05-05 10:41 | 41.88301 | 21.34639 | 40825 ft | 519 kts | 138° |
| 2026-05-05 10:41 | 41.82183 | 21.42344 | 40830 ft | 519 kts | 139° |
| 2026-05-05 10:42 | 41.75121 | 21.51211 | 40826 ft | 519 kts | 139° |
| 2026-05-05 10:43 | 41.69879 | 21.57772 | 40826 ft | 520 kts | 139° |
| 2026-05-05 10:43 | 41.64578 | 21.64386 | 40840 ft | 520 kts | 139° |
| 2026-05-05 10:44 | 41.59278 | 21.70986 | 40835 ft | 520 kts | 139° |
| 2026-05-05 10:44 | 41.54003 | 21.77543 | 40842 ft | 520 kts | 139° |
| 2026-05-05 10:45 | 41.48673 | 21.84158 | 40854 ft | 520 kts | 139° |
| 2026-05-05 10:45 | 41.43406 | 21.90678 | 40844 ft | 520 kts | 139° |
| 2026-05-05 10:46 | 41.38109 | 21.97218 | 40840 ft | 520 kts | 139° |
| 2026-05-05 10:46 | 41.32787 | 22.03771 | 40850 ft | 519 kts | 139° |
| 2026-05-05 10:47 | 41.28373 | 22.09192 | 40853 ft | 520 kts | 139° |
| 2026-05-05 10:47 | 41.21941 | 22.17075 | 40845 ft | 520 kts | 139° |
| 2026-05-05 10:48 | 41.16609 | 22.23477 | 40861 ft | 520 kts | 141° |
| 2026-05-05 10:48 | 41.11049 | 22.29627 | 40851 ft | 519 kts | 143° |
| 2026-05-05 10:49 | 41.05435 | 22.35675 | 40855 ft | 520 kts | 143° |
| 2026-05-05 10:49 | 40.99810 | 22.41709 | 40862 ft | 520 kts | 143° |
| 2026-05-05 10:50 | 40.94208 | 22.47705 | 40849 ft | 520 kts | 143° |
| 2026-05-05 10:51 | 40.82878 | 22.59792 | 40858 ft | 521 kts | 143° |
| 2026-05-05 10:51 | 40.77238 | 22.65788 | 40845 ft | 520 kts | 143° |
| 2026-05-05 10:52 | 40.71601 | 22.71770 | 40849 ft | 521 kts | 143° |
| 2026-05-05 10:52 | 40.65964 | 22.77737 | 40855 ft | 521 kts | 144° |
| 2026-05-05 10:53 | 40.60309 | 22.83709 | 40840 ft | 521 kts | 144° |
| 2026-05-05 10:53 | 40.54638 | 22.89685 | 40848 ft | 521 kts | 144° |
| 2026-05-05 10:54 | 40.49012 | 22.95601 | 40852 ft | 521 kts | 144° |
| 2026-05-05 10:54 | 40.43554 | 23.01981 | 40845 ft | 523 kts | 137° |
| 2026-05-05 10:55 | 40.38558 | 23.08857 | 40847 ft | 524 kts | 135° |
| 2026-05-05 10:55 | 40.33563 | 23.15832 | 40849 ft | 524 kts | 136° |
| 2026-05-05 10:56 | 40.28536 | 23.22782 | 40842 ft | 524 kts | 136° |
| 2026-05-05 10:56 | 40.23509 | 23.29692 | 40845 ft | 524 kts | 136° |
| 2026-05-05 10:57 | 40.18461 | 23.36616 | 40848 ft | 524 kts | 136° |
| 2026-05-05 10:57 | 40.13417 | 23.43519 | 40835 ft | 525 kts | 136° |
| 2026-05-05 10:58 | 40.08372 | 23.50404 | 40845 ft | 525 kts | 136° |
| 2026-05-05 10:58 | 40.03319 | 23.57283 | 40842 ft | 524 kts | 136° |
| 2026-05-05 10:59 | 39.98265 | 23.64152 | 40830 ft | 525 kts | 136° |
| 2026-05-05 10:59 | 39.93225 | 23.70984 | 40843 ft | 526 kts | 137° |
| 2026-05-05 11:00 | 39.88145 | 23.77856 | 40834 ft | 525 kts | 137° |
| 2026-05-05 11:00 | 39.83074 | 23.84702 | 40831 ft | 525 kts | 137° |
| 2026-05-05 11:01 | 39.78036 | 23.91487 | 40841 ft | 525 kts | 137° |
| 2026-05-05 11:01 | 39.72963 | 23.98302 | 40825 ft | 525 kts | 137° |
| 2026-05-05 11:02 | 39.67882 | 24.05113 | 40823 ft | 525 kts | 137° |
| 2026-05-05 11:02 | 39.62795 | 24.11915 | 40837 ft | 525 kts | 137° |
| 2026-05-05 11:03 | 39.57700 | 24.18711 | 40827 ft | 526 kts | 137° |
| 2026-05-05 11:03 | 39.52589 | 24.25514 | 40829 ft | 526 kts | 137° |
| 2026-05-05 11:04 | 39.47471 | 24.32316 | 40840 ft | 527 kts | 137° |
| 2026-05-05 11:04 | 39.42383 | 24.39062 | 40829 ft | 527 kts | 137° |
| 2026-05-05 11:05 | 39.37258 | 24.45841 | 40835 ft | 527 kts | 138° |
| 2026-05-05 11:05 | 39.32132 | 24.52642 | 40845 ft | 528 kts | 137° |
| 2026-05-05 11:06 | 39.27026 | 24.59465 | 40837 ft | 529 kts | 137° |
| 2026-05-05 11:06 | 39.21897 | 24.66313 | 40845 ft | 529 kts | 137° |
| 2026-05-05 11:07 | 39.16770 | 24.73143 | 40846 ft | 529 kts | 138° |
| 2026-05-05 11:07 | 39.11669 | 24.79915 | 40834 ft | 529 kts | 138° |
| 2026-05-05 11:08 | 39.06501 | 24.86670 | 40846 ft | 530 kts | 139° |
| 2026-05-05 11:08 | 39.01299 | 24.93415 | 40842 ft | 529 kts | 139° |
| 2026-05-05 11:09 | 38.96109 | 25.00127 | 40833 ft | 530 kts | 139° |
| 2026-05-05 11:09 | 38.90911 | 25.06840 | 40842 ft | 530 kts | 139° |
| 2026-05-05 11:10 | 38.85733 | 25.13516 | 40835 ft | 530 kts | 139° |
| 2026-05-05 11:10 | 38.80522 | 25.20217 | 40828 ft | 530 kts | 139° |
| 2026-05-05 11:11 | 38.75297 | 25.26922 | 40841 ft | 531 kts | 140° |
| 2026-05-05 11:11 | 38.70942 | 25.32498 | 40837 ft | 531 kts | 140° |
| 2026-05-05 11:12 | 38.60169 | 25.46250 | 40837 ft | 531 kts | 140° |
| 2026-05-05 11:13 | 38.54923 | 25.52921 | 40827 ft | 532 kts | 140° |
| 2026-05-05 11:13 | 38.49681 | 25.59576 | 40819 ft | 531 kts | 140° |
| 2026-05-05 11:14 | 38.44461 | 25.66189 | 40831 ft | 531 kts | 141° |
| 2026-05-05 11:14 | 38.39208 | 25.72827 | 40819 ft | 532 kts | 141° |
| 2026-05-05 11:15 | 38.33951 | 25.79476 | 40532 ft | 532 kts | 141° |
| 2026-05-05 11:15 | 38.31308 | 25.82790 | 39898 ft | 529 kts | 143° |
| 2026-05-05 11:15 | 38.28465 | 25.85590 | 39176 ft | 520 kts | 153° |
| 2026-05-05 11:15 | 38.25398 | 25.87999 | 38495 ft | 515 kts | 157° |
| 2026-05-05 11:16 | 38.22285 | 25.90245 | 37840 ft | 512 kts | 158° |
| 2026-05-05 11:16 | 38.19160 | 25.92360 | 37225 ft | 506 kts | 161° |
| 2026-05-05 11:16 | 38.15992 | 25.94264 | 36609 ft | 500 kts | 164° |
| 2026-05-05 11:16 | 38.14915 | 25.94859 | 36401 ft | 497 kts | 165° |
| 2026-05-05 11:17 | 38.06788 | 25.98874 | 34848 ft | 485 kts | 169° |
| 2026-05-05 11:17 | 38.03634 | 26.00330 | 34248 ft | 481 kts | 169° |
| 2026-05-05 11:17 | 38.00493 | 26.01765 | 33625 ft | 478 kts | 169° |
| 2026-05-05 11:18 | 37.97367 | 26.03188 | 32992 ft | 475 kts | 170° |
| 2026-05-05 11:18 | 37.94263 | 26.04601 | 32389 ft | 471 kts | 170° |
| 2026-05-05 11:18 | 37.91225 | 26.05985 | 31819 ft | 468 kts | 170° |
| 2026-05-05 11:18 | 37.88141 | 26.07390 | 31239 ft | 465 kts | 170° |
| 2026-05-05 11:19 | 37.85127 | 26.08759 | 30670 ft | 466 kts | 170° |
| 2026-05-05 11:19 | 37.82079 | 26.10140 | 30093 ft | 466 kts | 170° |
| 2026-05-05 11:19 | 37.79036 | 26.11523 | 29510 ft | 462 kts | 170° |
| 2026-05-05 11:19 | 37.76021 | 26.12893 | 28930 ft | 457 kts | 169° |
| 2026-05-05 11:20 | 37.73055 | 26.14238 | 28364 ft | 451 kts | 169° |
| 2026-05-05 11:20 | 37.70112 | 26.15565 | 27802 ft | 445 kts | 169° |
| 2026-05-05 11:20 | 37.67215 | 26.16869 | 27251 ft | 439 kts | 169° |
| 2026-05-05 11:20 | 37.64347 | 26.18157 | 26706 ft | 435 kts | 169° |
| 2026-05-05 11:21 | 37.61504 | 26.19434 | 26168 ft | 431 kts | 168° |
| 2026-05-05 11:21 | 37.58697 | 26.20691 | 25636 ft | 428 kts | 168° |
| 2026-05-05 11:21 | 37.55899 | 26.21943 | 25105 ft | 425 kts | 168° |
| 2026-05-05 11:21 | 37.53114 | 26.23188 | 24575 ft | 423 kts | 168° |
| 2026-05-05 11:22 | 37.50341 | 26.24428 | 24048 ft | 422 kts | 167° |
| 2026-05-05 11:22 | 37.47609 | 26.25649 | 23528 ft | 420 kts | 167° |
| 2026-05-05 11:22 | 37.44860 | 26.26879 | 23003 ft | 418 kts | 167° |
| 2026-05-05 11:22 | 37.42137 | 26.28097 | 22483 ft | 415 kts | 167° |
| 2026-05-05 11:23 | 37.39420 | 26.29310 | 21967 ft | 412 kts | 167° |
| 2026-05-05 11:23 | 37.36729 | 26.30510 | 21456 ft | 409 kts | 167° |
| 2026-05-05 11:23 | 37.34060 | 26.31700 | 20947 ft | 405 kts | 167° |
| 2026-05-05 11:23 | 37.31404 | 26.32883 | 20442 ft | 402 kts | 167° |
| 2026-05-05 11:24 | 37.28774 | 26.34052 | 19941 ft | 399 kts | 167° |
| 2026-05-05 11:24 | 37.26160 | 26.35213 | 19443 ft | 397 kts | 167° |
| 2026-05-05 11:24 | 37.23576 | 26.36361 | 18951 ft | 394 kts | 167° |
| 2026-05-05 11:24 | 37.20997 | 26.37505 | 18460 ft | 391 kts | 167° |
| 2026-05-05 11:25 | 37.18444 | 26.38639 | 17974 ft | 388 kts | 167° |
| 2026-05-05 11:25 | 37.15926 | 26.39756 | 17496 ft | 386 kts | 167° |
| 2026-05-05 11:25 | 37.13410 | 26.40871 | 17017 ft | 384 kts | 167° |
| 2026-05-05 11:25 | 37.10898 | 26.41984 | 16540 ft | 381 kts | 167° |
| 2026-05-05 11:26 | 37.08407 | 26.43088 | 16066 ft | 378 kts | 166° |
| 2026-05-05 11:26 | 37.05933 | 26.44183 | 15595 ft | 375 kts | 166° |
| 2026-05-05 11:26 | 37.03484 | 26.45267 | 15128 ft | 372 kts | 166° |
| 2026-05-05 11:26 | 37.01064 | 26.46336 | 14670 ft | 368 kts | 166° |
| 2026-05-05 11:27 | 36.98647 | 26.47403 | 14211 ft | 366 kts | 166° |
| 2026-05-05 11:27 | 36.96252 | 26.48460 | 13756 ft | 362 kts | 166° |
| 2026-05-05 11:27 | 36.93916 | 26.49493 | 13244 ft | 348 kts | 166° |
| 2026-05-05 11:27 | 36.91687 | 26.50482 | 12839 ft | 332 kts | 166° |
| 2026-05-05 11:28 | 36.89576 | 26.51514 | 12441 ft | 321 kts | 158° |
| 2026-05-05 11:28 | 36.87901 | 26.53276 | 12058 ft | 320 kts | 131° |
| 2026-05-05 11:28 | 36.86951 | 26.55741 | 11799 ft | 309 kts | 111° |
| 2026-05-05 11:28 | 36.86350 | 26.58240 | 11591 ft | 294 kts | 110° |
| 2026-05-05 11:29 | 36.85709 | 26.60651 | 11317 ft | 292 kts | 113° |
| 2026-05-05 11:29 | 36.84978 | 26.63038 | 11035 ft | 296 kts | 115° |
| 2026-05-05 11:29 | 36.84189 | 26.65417 | 10749 ft | 297 kts | 116° |
| 2026-05-05 11:29 | 36.83328 | 26.67745 | 10442 ft | 293 kts | 124° |
| 2026-05-05 11:30 | 36.82126 | 26.69750 | 10195 ft | 285 kts | 133° |
| 2026-05-05 11:30 | 36.81274 | 26.71028 | 10025 ft | 284 kts | 134° |
| 2026-05-05 11:30 | 36.80219 | 26.72564 | 9806 ft | 284 kts | 135° |
| 2026-05-05 11:30 | 36.78920 | 26.74415 | 9545 ft | 283 kts | 135° |
| 2026-05-05 11:31 | 36.77615 | 26.76248 | 9283 ft | 282 kts | 136° |
| 2026-05-05 11:31 | 36.76314 | 26.78062 | 9021 ft | 280 kts | 136° |
| 2026-05-05 11:31 | 36.75008 | 26.79875 | 8755 ft | 279 kts | 136° |
| 2026-05-05 11:31 | 36.73715 | 26.81665 | 8491 ft | 278 kts | 136° |
| 2026-05-05 11:32 | 36.72426 | 26.83446 | 8230 ft | 276 kts | 136° |
| 2026-05-05 11:32 | 36.71134 | 26.85230 | 7970 ft | 275 kts | 136° |
| 2026-05-05 11:32 | 36.69861 | 26.86989 | 7718 ft | 274 kts | 135° |
| 2026-05-05 11:32 | 36.68818 | 26.88996 | 7455 ft | 276 kts | 121° |
| 2026-05-05 11:33 | 36.67973 | 26.91137 | 7214 ft | 276 kts | 118° |
| 2026-05-05 11:33 | 36.67134 | 26.93291 | 6939 ft | 276 kts | 118° |
| 2026-05-05 11:33 | 36.66302 | 26.95407 | 6673 ft | 273 kts | 119° |
| 2026-05-05 11:33 | 36.65453 | 26.97547 | 6423 ft | 271 kts | 119° |
| 2026-05-05 11:34 | 36.64628 | 26.99615 | 6187 ft | 270 kts | 119° |
| 2026-05-05 11:34 | 36.63800 | 27.01686 | 5912 ft | 263 kts | 119° |
| 2026-05-05 11:34 | 36.63003 | 27.03673 | 5671 ft | 251 kts | 119° |
| 2026-05-05 11:34 | 36.62248 | 27.05557 | 5502 ft | 234 kts | 120° |
| 2026-05-05 11:35 | 36.61540 | 27.07319 | 5310 ft | 224 kts | 120° |
| 2026-05-05 11:35 | 36.60837 | 27.09059 | 5041 ft | 224 kts | 120° |
| 2026-05-05 11:35 | 36.60138 | 27.10794 | 4814 ft | 222 kts | 120° |
| 2026-05-05 11:35 | 36.59554 | 27.12521 | 4515 ft | 215 kts | 108° |
| 2026-05-05 11:36 | 36.59670 | 27.14321 | 4277 ft | 204 kts | 74° |
| 2026-05-05 11:36 | 36.60143 | 27.15914 | 4172 ft | 193 kts | 68° |
| 2026-05-05 11:36 | 36.60630 | 27.17462 | 4011 ft | 191 kts | 67° |
| 2026-05-05 11:36 | 36.61140 | 27.18955 | 3863 ft | 188 kts | 60° |
| 2026-05-05 11:37 | 36.62034 | 27.20088 | 3780 ft | 183 kts | 30° |
| 2026-05-05 11:37 | 36.63227 | 27.20524 | 3729 ft | 178 kts | 2° |
| 2026-05-05 11:37 | 36.64434 | 27.20381 | 3591 ft | 173 kts | 343° |
| 2026-05-05 11:37 | 36.65564 | 27.19889 | 3346 ft | 170 kts | 332° |
| 2026-05-05 11:38 | 36.66609 | 27.19226 | 3067 ft | 167 kts | 326° |
| 2026-05-05 11:38 | 36.67573 | 27.18447 | 2808 ft | 163 kts | 320° |
| 2026-05-05 11:38 | 36.68480 | 27.17648 | 2575 ft | 160 kts | 320° |
| 2026-05-05 11:38 | 36.69396 | 27.16865 | 2366 ft | 159 kts | 321° |
| 2026-05-05 11:39 | 36.70322 | 27.16122 | 2256 ft | 158 kts | 323° |
| 2026-05-05 11:39 | 36.71270 | 27.15412 | 2251 ft | 157 kts | 324° |
| 2026-05-05 11:39 | 36.72229 | 27.14740 | 2300 ft | 159 kts | 326° |
| 2026-05-05 11:39 | 36.73191 | 27.14113 | 2352 ft | 157 kts | 327° |
| 2026-05-05 11:40 | 36.74122 | 27.13404 | 2320 ft | 156 kts | 322° |
| 2026-05-05 11:40 | 36.75037 | 27.12669 | 2118 ft | 156 kts | 322° |
| 2026-05-05 11:40 | 36.75936 | 27.11908 | 1776 ft | 156 kts | 321° |
| 2026-05-05 11:40 | 36.76848 | 27.11153 | 1299 ft | 159 kts | 323° |
| 2026-05-05 11:41 | 36.77772 | 27.10381 | 829 ft | 159 kts | 324° |
| 2026-05-05 11:41 | 36.78715 | 27.09689 | 453 ft | 155 kts | 326° |
| 2026-05-05 11:41 | 36.79510 | 27.09064 | 423 ft | 104 kts | 335° |
| 2026-05-05 11:41 | 36.79941 | 27.08730 | 422 ft | 43 kts | 332° |
| 2026-05-05 11:42 | 36.80146 | 27.08578 | 422 ft | 35 kts | 329° |
| 2026-05-05 11:42 | 36.80293 | 27.08464 | 422 ft | 15 kts | 332° |
| 2026-05-05 11:42 | 36.80353 | 27.08521 | 422 ft | 8 kts | 94° |
| 2026-05-05 11:42 | 36.80351 | 27.08561 | 422 ft | 8 kts | 94° |
| 2026-05-05 11:43 | 36.80343 | 27.08646 | 422 ft | 4 kts | 118° |
| 2026-05-05 11:43 | 36.80306 | 27.08697 | 422 ft | 11 kts | 141° |
| 2026-05-05 11:43 | 36.80250 | 27.08745 | 422 ft | 13 kts | 145° |
| 2026-05-05 11:43 | 36.80159 | 27.08814 | 422 ft | 18 kts | 149° |
| 2026-05-05 11:44 | 36.80086 | 27.08870 | 422 ft | 9 kts | 148° |
| 2026-05-05 11:44 | 36.80041 | 27.08905 | 422 ft | 2 kts | 148° |
| 2026-05-05 11:44 | 36.80016 | 27.08931 | 422 ft | 6 kts | 119° |
| 2026-05-05 11:44 | 36.80011 | 27.08978 | 422 ft | 1 kts | 87° |
| 2026-05-05 11:45 | 36.80011 | 27.09009 | 422 ft | 3 kts | 89° |
| 2026-05-05 11:45 | 36.80011 | 27.09013 | 422 ft | 0 kts | 89° |